aviador You're here:

MMTG Decoded Metar

TUXTLA GUTIERREZ in MEXICO
Report Time2018-07-22 23:47:00
UTC Time2018-07-23 00:10:51
Flight Rules vfr VFR
Wind320° at 20 kt
W.Decomp.*RWY 32: 20.0 kt HW 1 kt LCW
W.Rank320° ranks 2
Current wind is above 320° avg. (9.0)
Visibility9999 m
Phenomena:N/A
Clouds:Scattered TCU 025 Hf
Scattered 080 Hf
Broken 300 Hf
Expected CloudBase > 2,800 ft AGL from Temp-Dew spread
Ceiling30,000 ft
Temp28°C (ISA +16)
Dew Point21°C (66% RH)
Heat Index30.2°C
AAT25.0°C
QNH1014 hPa
Density Alt3,921 ft
Elevation1,732 ft
Report Wrong Elevation
Raw Report
MMTG 222347Z 32020KT 8SM SCT025TCU SCT080 BKN300 28/21 A2994 RMK
SLP094 51008 904 8/263 HZY ISOLD CB=

Extra information for MMTG:More info

Metar Taf Metar & Taf Last 4 Metars F.Rules Stats Wind Profile Meteogram Temp Stats Airport Information Weather charts Add Link Nearby VenuesMetar ALERT Operation Metar Decoded Social comments